createdAt,value
2018-05-17T00:00:09.268Z,12.57
2018-05-17T00:01:09.247Z,12.55
2018-05-17T00:02:09.219Z,12.55
2018-05-17T00:03:09.191Z,12.50
2018-05-17T00:04:09.170Z,12.57
2018-05-17T00:05:09.134Z,12.49
2018-05-17T00:06:09.109Z,12.58
2018-05-17T00:07:09.080Z,12.43
2018-05-17T00:08:09.068Z,12.54
2018-05-17T00:09:09.028Z,12.62
2018-05-17T00:10:09.004Z,12.55
2018-05-17T00:11:08.994Z,12.58
2018-05-17T00:12:08.956Z,12.53
2018-05-17T00:13:08.932Z,12.53
2018-05-17T00:14:08.902Z,12.43
2018-05-17T00:15:08.879Z,12.57
2018-05-17T00:16:08.846Z,12.58
2018-05-17T00:17:08.829Z,12.54
2018-05-17T00:18:08.806Z,12.43
2018-05-17T00:19:08.771Z,12.46
2018-05-17T00:20:08.752Z,12.49
2018-05-17T00:21:08.718Z,12.57
2018-05-17T00:22:08.697Z,12.58
2018-05-17T00:23:08.675Z,12.54
2018-05-17T00:24:08.645Z,12.58
2018-05-17T00:25:08.618Z,12.46
2018-05-17T00:26:08.596Z,12.53
2018-05-17T00:27:08.559Z,12.49
2018-05-17T00:28:08.544Z,12.42
2018-05-17T00:29:08.515Z,12.46
2018-05-17T00:30:08.494Z,12.43
2018-05-17T00:31:08.462Z,12.46
2018-05-17T00:32:08.437Z,12.46
2018-05-17T00:33:08.412Z,12.46
2018-05-17T00:34:08.380Z,12.46
2018-05-17T00:35:08.365Z,12.42
2018-05-17T00:36:08.335Z,12.47
2018-05-17T00:37:08.304Z,12.49
2018-05-17T00:38:08.285Z,12.49
2018-05-17T00:39:08.254Z,12.47
2018-05-17T00:40:08.475Z,12.32
2018-05-17T00:41:08.204Z,12.36
2018-05-17T00:42:08.174Z,12.29
2018-05-17T00:43:08.155Z,12.32
2018-05-17T00:44:08.128Z,12.25
2018-05-17T00:45:08.103Z,12.24
2018-05-17T00:46:08.075Z,12.25
2018-05-17T00:47:08.045Z,12.25
2018-05-17T00:48:08.018Z,12.28
2018-05-17T00:49:08.000Z,12.17
2018-05-17T00:50:07.969Z,12.13
2018-05-17T00:51:07.943Z,12.13
2018-05-17T00:52:07.927Z,12.20
2018-05-17T00:53:07.886Z,12.12
2018-05-17T00:54:07.869Z,12.15
2018-05-17T00:55:07.843Z,12.21
2018-05-17T00:56:07.816Z,12.15
2018-05-17T00:57:07.792Z,12.21
2018-05-17T00:58:07.762Z,12.27
2018-05-17T00:59:07.737Z,12.15
2018-05-17T01:00:07.711Z,12.12
2018-05-17T01:01:07.685Z,12.17
2018-05-17T01:02:07.662Z,12.17
2018-05-17T01:03:07.628Z,12.28
2018-05-17T01:04:07.608Z,12.22
2018-05-17T01:05:07.577Z,12.29
2018-05-17T01:06:07.550Z,12.29
2018-05-17T01:07:07.530Z,12.27
2018-05-17T01:08:07.499Z,12.21
2018-05-17T01:09:07.481Z,12.24
2018-05-17T01:10:07.460Z,12.42
2018-05-17T01:11:07.424Z,12.24
2018-05-17T01:12:07.405Z,12.32
2018-05-17T01:13:07.374Z,12.29
2018-05-17T01:14:07.348Z,12.43
2018-05-17T01:15:07.317Z,12.27
2018-05-17T01:16:07.295Z,12.24
2018-05-17T01:17:07.267Z,12.22
2018-05-17T01:18:07.237Z,12.25
2018-05-17T01:19:07.219Z,12.12
2018-05-17T01:20:07.187Z,12.15
2018-05-17T01:21:07.170Z,12.15
2018-05-17T01:22:07.144Z,12.13
2018-05-17T01:23:07.110Z,12.06
2018-05-17T01:24:07.090Z,12.10
2018-05-17T01:25:07.056Z,12.10
2018-05-17T01:26:07.033Z,12.13
2018-05-17T01:27:07.006Z,12.10
2018-05-17T01:28:06.985Z,12.03
2018-05-17T01:29:06.956Z,12.06
2018-05-17T01:30:06.930Z,12.04
2018-05-17T01:31:06.904Z,12.07
2018-05-17T01:32:06.888Z,12.04
2018-05-17T01:33:06.857Z,12.09
2018-05-17T01:34:06.832Z,12.03
2018-05-17T01:35:06.919Z,12.15
2018-05-17T01:36:06.773Z,12.10
2018-05-17T01:37:06.749Z,12.06
2018-05-17T01:38:06.721Z,12.07
2018-05-17T01:39:06.701Z,12.07
2018-05-17T01:40:06.672Z,12.10
2018-05-17T01:41:06.643Z,12.12
2018-05-17T01:42:06.698Z,12.09
2018-05-17T01:43:06.588Z,12.07
2018-05-17T01:44:06.573Z,12.03
2018-05-17T01:45:06.546Z,12.07
2018-05-17T01:46:06.511Z,12.07
2018-05-17T01:47:06.492Z,12.04
2018-05-17T01:48:06.461Z,12.10
2018-05-17T01:49:06.447Z,12.12
2018-05-17T01:50:06.413Z,12.07
2018-05-17T01:51:06.384Z,12.09
2018-05-17T01:52:06.355Z,11.95
2018-05-17T01:53:06.339Z,11.90
2018-05-17T01:54:06.305Z,11.91
2018-05-17T01:55:06.283Z,12.02
2018-05-17T01:56:06.261Z,11.88
2018-05-17T01:57:06.224Z,11.75
2018-05-17T01:58:06.207Z,11.86
2018-05-17T01:59:06.174Z,11.84
2018-05-17T02:00:06.153Z,11.91
2018-05-17T02:01:06.129Z,11.87
2018-05-17T02:02:06.101Z,11.88
2018-05-17T02:03:06.071Z,11.97
2018-05-17T02:04:06.045Z,11.83
2018-05-17T02:05:06.022Z,11.81
2018-05-17T02:06:05.999Z,11.84
2018-05-17T02:07:05.964Z,11.72
2018-05-17T02:08:05.953Z,11.78
2018-05-17T02:09:05.913Z,11.84
2018-05-17T02:10:05.887Z,11.84
2018-05-17T02:11:05.868Z,11.80
2018-05-17T02:12:05.838Z,11.80
2018-05-17T02:13:05.815Z,11.80
2018-05-17T02:14:05.791Z,11.75
2018-05-17T02:15:05.756Z,11.73
2018-05-17T02:16:05.743Z,11.72
2018-05-17T02:17:05.702Z,11.75
2018-05-17T02:18:05.676Z,11.59
2018-05-17T02:19:05.729Z,11.54
2018-05-17T02:20:05.631Z,11.52
2018-05-17T02:21:05.608Z,11.60
2018-05-17T02:22:05.581Z,11.62
2018-05-17T02:23:05.551Z,11.62
2018-05-17T02:24:05.529Z,11.59
2018-05-17T02:25:05.497Z,11.63
2018-05-17T02:26:05.473Z,11.57
2018-05-17T02:27:05.448Z,11.65
2018-05-17T02:28:05.420Z,11.72
2018-05-17T02:29:05.400Z,11.69
2018-05-17T02:30:05.374Z,11.72
2018-05-17T02:31:05.343Z,11.65
2018-05-17T02:32:05.312Z,11.66
2018-05-17T02:33:05.297Z,11.66
2018-05-17T02:34:05.269Z,11.65
2018-05-17T02:35:05.243Z,11.69
2018-05-17T02:36:05.216Z,11.57
2018-05-17T02:37:05.181Z,11.57
2018-05-17T02:38:05.173Z,11.63
2018-05-17T02:39:05.135Z,11.66
2018-05-17T02:40:05.105Z,11.63
2018-05-17T02:41:05.085Z,11.66
2018-05-17T02:42:05.061Z,11.66
2018-05-17T02:43:05.035Z,11.63
2018-05-17T02:44:05.005Z,11.60
2018-05-17T02:45:04.980Z,11.63
2018-05-17T02:46:04.956Z,11.66
2018-05-17T02:47:04.926Z,11.65
2018-05-17T02:48:04.906Z,11.75
2018-05-17T02:49:04.898Z,11.69
2018-05-17T02:50:04.850Z,11.75
2018-05-17T02:51:04.820Z,11.73
2018-05-17T02:52:04.792Z,11.73
2018-05-17T02:53:04.768Z,11.68
2018-05-17T02:54:04.740Z,11.69
2018-05-17T02:55:04.769Z,11.77
2018-05-17T02:56:04.743Z,11.69
2018-05-17T02:57:04.664Z,11.73
2018-05-17T02:58:04.645Z,11.69
2018-05-17T02:59:04.610Z,11.75
2018-05-17T03:00:04.587Z,11.77
2018-05-17T03:01:04.563Z,11.75
2018-05-17T03:02:04.541Z,11.81
2018-05-17T03:03:04.512Z,11.80
2018-05-17T03:04:04.485Z,11.65
2018-05-17T03:05:04.456Z,11.72
2018-05-17T03:06:04.430Z,11.69
2018-05-17T03:07:04.405Z,11.75
2018-05-17T03:08:04.392Z,11.73
2018-05-17T03:09:04.359Z,11.77
2018-05-17T03:10:04.333Z,11.72
2018-05-17T03:11:04.297Z,11.78
2018-05-17T03:12:04.273Z,11.54
2018-05-17T03:13:04.250Z,11.50
2018-05-17T03:14:04.218Z,11.45
2018-05-17T03:15:04.201Z,11.45
2018-05-17T03:16:04.174Z,11.50
2018-05-17T03:17:04.142Z,11.62
2018-05-17T03:18:04.118Z,11.48
2018-05-17T03:19:04.094Z,11.37
2018-05-17T03:20:04.065Z,11.43
2018-05-17T03:21:04.043Z,11.48
2018-05-17T03:22:04.016Z,11.47
2018-05-17T03:23:03.985Z,11.52
2018-05-17T03:24:03.964Z,11.45
2018-05-17T03:25:03.934Z,11.41
2018-05-17T03:26:03.913Z,11.48
2018-05-17T03:27:03.883Z,11.47
2018-05-17T03:28:03.859Z,11.44
2018-05-17T03:29:03.830Z,11.30
2018-05-17T03:30:03.806Z,11.29
2018-05-17T03:31:03.781Z,11.36
2018-05-17T03:32:03.751Z,11.35
2018-05-17T03:33:03.729Z,11.33
2018-05-17T03:34:03.703Z,11.29
2018-05-17T03:35:03.672Z,11.43
2018-05-17T03:36:03.655Z,11.40
2018-05-17T03:37:03.627Z,11.40
2018-05-17T03:38:03.596Z,11.33
2018-05-17T03:39:03.575Z,11.25
2018-05-17T03:40:03.549Z,11.22
2018-05-17T03:41:03.513Z,11.17
2018-05-17T03:42:03.496Z,11.26
2018-05-17T03:43:03.460Z,11.35
2018-05-17T03:44:03.439Z,11.29
2018-05-17T03:45:03.416Z,11.30
2018-05-17T03:46:03.384Z,11.17
2018-05-17T03:47:03.366Z,11.25
2018-05-17T03:48:03.338Z,11.25
2018-05-17T03:49:03.309Z,11.14
2018-05-17T03:50:03.300Z,11.27
2018-05-17T03:51:03.256Z,11.18
2018-05-17T03:52:03.250Z,11.33
2018-05-17T03:53:03.264Z,11.29
2018-05-17T03:54:03.255Z,11.29
2018-05-17T03:55:03.153Z,11.26
2018-05-17T03:56:03.137Z,11.26
2018-05-17T03:57:03.105Z,11.27
2018-05-17T03:58:03.077Z,11.12
2018-05-17T03:59:03.058Z,11.25
2018-05-17T04:00:03.031Z,11.10
2018-05-17T04:01:03.002Z,11.10
2018-05-17T04:02:02.976Z,11.15
2018-05-17T04:03:02.941Z,11.14
2018-05-17T04:04:02.918Z,11.11
2018-05-17T04:05:02.911Z,11.23
2018-05-17T04:06:02.867Z,11.25
2018-05-17T04:07:02.849Z,11.14
2018-05-17T04:08:02.817Z,11.23
2018-05-17T04:09:02.788Z,11.30
2018-05-17T04:10:02.768Z,11.30
2018-05-17T04:11:02.738Z,11.26
2018-05-17T04:12:02.717Z,11.29
2018-05-17T04:13:02.680Z,11.22
2018-05-17T04:14:02.666Z,11.19
2018-05-17T04:15:02.630Z,11.22
2018-05-17T04:16:02.601Z,11.29
2018-05-17T04:17:02.584Z,11.25
2018-05-17T04:18:02.548Z,11.26
2018-05-17T04:19:02.530Z,11.29
2018-05-17T04:20:02.506Z,11.26
2018-05-17T04:21:02.472Z,11.44
2018-05-17T04:22:02.450Z,11.47
2018-05-17T04:23:02.416Z,11.47
2018-05-17T04:24:02.389Z,11.57
2018-05-17T04:25:02.371Z,11.62
2018-05-17T04:26:02.343Z,11.59
2018-05-17T04:27:02.318Z,11.60
2018-05-17T04:28:02.294Z,11.72
2018-05-17T04:29:02.289Z,11.75
2018-05-17T04:30:02.278Z,11.65
2018-05-17T04:31:02.210Z,11.66
2018-05-17T04:32:02.182Z,11.72
2018-05-17T04:33:02.161Z,11.73
2018-05-17T04:34:02.132Z,11.75
2018-05-17T04:35:02.108Z,11.81
2018-05-17T04:36:02.077Z,11.75
2018-05-17T04:37:02.052Z,11.75
2018-05-17T04:38:02.032Z,11.75
2018-05-17T04:39:01.999Z,11.75
2018-05-17T04:40:01.978Z,11.66
2018-05-17T04:41:01.951Z,11.54
2018-05-17T04:42:01.923Z,11.59
2018-05-17T04:43:01.904Z,11.45
2018-05-17T04:44:01.865Z,11.35
2018-05-17T04:45:01.850Z,11.22
2018-05-17T04:46:01.821Z,11.22
2018-05-17T04:47:01.836Z,11.22
2018-05-17T04:48:01.762Z,11.23
2018-05-17T04:49:01.745Z,11.27
2018-05-17T04:50:01.714Z,11.29
2018-05-17T04:51:01.684Z,11.37
2018-05-17T04:52:01.755Z,11.47
2018-05-17T04:53:01.631Z,11.47
2018-05-17T04:54:01.617Z,11.48
2018-05-17T04:55:01.588Z,11.48
2018-05-17T04:56:01.552Z,11.47
2018-05-17T04:57:01.539Z,11.45
2018-05-17T04:58:01.511Z,11.43
2018-05-17T04:59:01.489Z,11.40
2018-05-17T05:00:01.458Z,11.26
2018-05-17T05:01:01.425Z,11.23
2018-05-17T05:02:01.407Z,11.30
2018-05-17T05:03:01.414Z,11.29
2018-05-17T05:04:01.366Z,11.27
2018-05-17T05:05:01.325Z,11.36
2018-05-17T05:06:01.293Z,11.43
2018-05-17T05:07:01.266Z,11.59
2018-05-17T05:08:01.244Z,11.55
2018-05-17T05:09:01.222Z,11.59
2018-05-17T05:10:01.195Z,11.66
2018-05-17T05:11:01.161Z,11.60
2018-05-17T05:12:01.137Z,11.75
2018-05-17T05:13:01.119Z,11.65
2018-05-17T05:14:01.084Z,11.48
2018-05-17T05:15:01.065Z,11.59
2018-05-17T05:16:01.036Z,11.55
2018-05-17T05:17:01.007Z,11.57
2018-05-17T05:18:00.979Z,11.78
2018-05-17T05:19:00.959Z,11.80
2018-05-17T05:20:00.925Z,11.90
2018-05-17T05:21:00.903Z,11.99
2018-05-17T05:22:00.884Z,12.07
2018-05-17T05:23:00.853Z,12.10
2018-05-17T05:24:00.838Z,12.17
2018-05-17T05:25:00.796Z,12.12
2018-05-17T05:26:00.775Z,12.17
2018-05-17T05:27:00.744Z,12.18
2018-05-17T05:28:00.718Z,12.17
2018-05-17T05:29:00.700Z,12.12
2018-05-17T05:30:00.672Z,12.13
2018-05-17T05:31:00.646Z,12.09
2018-05-17T05:32:00.682Z,12.09
2018-05-17T05:33:00.628Z,12.12
2018-05-17T05:34:00.574Z,12.20
2018-05-17T05:35:00.545Z,12.10
2018-05-17T05:36:00.521Z,12.13
2018-05-17T05:37:00.490Z,11.99
2018-05-17T05:38:00.470Z,11.94
2018-05-17T05:39:00.435Z,11.81
2018-05-17T05:40:00.414Z,11.84
2018-05-17T05:41:00.394Z,11.78
2018-05-17T05:42:00.367Z,11.75
2018-05-17T05:43:00.330Z,11.68
2018-05-17T05:44:00.310Z,11.78
2018-05-17T05:45:00.274Z,11.78
2018-05-17T05:46:00.255Z,11.75
2018-05-17T05:47:00.224Z,11.88
2018-05-17T05:48:00.246Z,11.97
2018-05-17T05:49:00.178Z,12.00
2018-05-17T05:50:00.167Z,11.97
2018-05-17T05:51:00.123Z,11.99
2018-05-17T05:52:00.093Z,12.06
2018-05-17T05:53:00.079Z,12.00
2018-05-17T05:54:00.041Z,12.04
2018-05-17T05:55:00.014Z,12.07
2018-05-17T05:55:59.992Z,12.02
2018-05-17T05:56:59.963Z,12.02
2018-05-17T05:57:59.935Z,11.95
2018-05-17T05:58:59.916Z,11.95
2018-05-17T05:59:59.884Z,11.99
2018-05-17T06:00:59.877Z,12.03
2018-05-17T06:01:59.839Z,12.07
2018-05-17T06:02:59.805Z,12.04
2018-05-17T06:03:59.788Z,11.97
2018-05-17T06:04:59.759Z,12.09
2018-05-17T06:05:59.747Z,12.04
2018-05-17T06:06:59.710Z,12.20
2018-05-17T06:07:59.681Z,12.21
2018-05-17T06:08:59.656Z,12.43
2018-05-17T06:09:59.633Z,12.40
2018-05-17T06:10:59.604Z,12.43
2018-05-17T06:11:59.576Z,12.54
2018-05-17T06:12:59.547Z,12.62
2018-05-17T06:13:59.529Z,12.67
2018-05-17T06:14:59.490Z,12.75
2018-05-17T06:15:59.472Z,12.67
2018-05-17T06:16:59.445Z,12.73
2018-05-17T06:17:59.414Z,12.62
2018-05-17T06:18:59.396Z,12.64
2018-05-17T06:19:59.368Z,12.70
2018-05-17T06:20:59.337Z,12.54
2018-05-17T06:21:59.318Z,12.54
2018-05-17T06:22:59.289Z,12.31
2018-05-17T06:23:59.258Z,12.29
2018-05-17T06:24:59.237Z,12.35
2018-05-17T06:25:59.214Z,12.43
2018-05-17T06:26:59.181Z,12.47
2018-05-17T06:27:59.163Z,12.42
2018-05-17T06:28:59.137Z,12.39
2018-05-17T06:29:59.132Z,12.39
2018-05-17T06:30:59.089Z,12.46
2018-05-17T06:31:59.059Z,12.45
2018-05-17T06:32:59.027Z,12.42
2018-05-17T06:33:59.009Z,12.40
2018-05-17T06:34:58.976Z,12.27
2018-05-17T06:35:58.949Z,12.18
2018-05-17T06:36:58.926Z,12.20
2018-05-17T06:37:58.904Z,12.25
2018-05-17T06:38:58.871Z,12.22
2018-05-17T06:39:58.851Z,12.31
2018-05-17T06:40:58.817Z,12.36
2018-05-17T06:41:58.791Z,12.45
2018-05-17T06:42:58.767Z,12.53
2018-05-17T06:43:58.759Z,12.49
2018-05-17T06:44:58.723Z,12.54
2018-05-17T06:45:58.697Z,12.73
2018-05-17T06:46:58.660Z,12.65
2018-05-17T06:47:58.638Z,12.73
2018-05-17T06:48:58.615Z,12.76
2018-05-17T06:49:58.584Z,12.87
2018-05-17T06:50:58.569Z,12.87
2018-05-17T06:51:58.576Z,12.83
2018-05-17T06:52:58.512Z,12.78
2018-05-17T06:53:58.481Z,12.65
2018-05-17T06:54:58.462Z,12.67
2018-05-17T06:55:58.435Z,12.55
2018-05-17T06:56:58.402Z,12.67
2018-05-17T06:57:58.387Z,12.55
2018-05-17T06:58:58.358Z,12.54
2018-05-17T06:59:58.332Z,12.57
2018-05-17T07:00:58.331Z,12.61
2018-05-17T07:01:58.298Z,12.68
2018-05-17T07:02:58.248Z,12.72
2018-05-17T07:03:58.224Z,12.72
2018-05-17T07:04:58.197Z,12.79
2018-05-17T07:05:58.171Z,12.70
2018-05-17T07:06:58.147Z,12.76
2018-05-17T07:07:58.119Z,12.73
2018-05-17T07:08:58.097Z,12.67
2018-05-17T07:09:58.068Z,12.72
2018-05-17T07:10:58.043Z,12.67
2018-05-17T07:11:58.017Z,12.68
2018-05-17T07:12:57.998Z,12.76
2018-05-17T07:13:57.967Z,12.83
2018-05-17T07:14:57.937Z,12.98
2018-05-17T07:15:57.917Z,13.05
2018-05-17T07:16:57.885Z,13.00
2018-05-17T07:17:57.895Z,13.01
2018-05-17T07:18:57.829Z,13.01
2018-05-17T07:19:57.808Z,13.19
2018-05-17T07:20:57.786Z,13.30
2018-05-17T07:21:57.753Z,13.25
2018-05-17T07:22:57.736Z,13.25
2018-05-17T07:23:57.708Z,13.27
2018-05-17T07:24:57.682Z,13.15
2018-05-17T07:25:57.656Z,12.95
2018-05-17T07:26:57.628Z,13.01
2018-05-17T07:27:57.598Z,12.91
2018-05-17T07:28:57.590Z,12.85
2018-05-17T07:29:57.599Z,12.80
2018-05-17T07:30:57.526Z,12.90
2018-05-17T07:31:57.559Z,12.73
2018-05-17T07:32:57.469Z,12.68
2018-05-17T07:33:57.445Z,12.73
2018-05-17T07:34:57.426Z,12.86
2018-05-17T07:35:57.395Z,12.79
2018-05-17T07:36:57.369Z,12.90
2018-05-17T07:37:57.348Z,12.93
2018-05-17T07:38:57.317Z,12.93
2018-05-17T07:39:57.291Z,12.94
2018-05-17T07:40:57.279Z,12.91
2018-05-17T07:41:57.239Z,12.90
2018-05-17T07:42:57.211Z,12.94
2018-05-17T07:43:57.188Z,12.94
2018-05-17T07:44:57.164Z,12.93
2018-05-17T07:45:57.134Z,12.79
2018-05-17T07:46:57.117Z,12.82
2018-05-17T07:47:57.082Z,12.70
2018-05-17T07:48:57.058Z,12.64
2018-05-17T07:49:57.044Z,12.72
2018-05-17T07:50:57.004Z,12.57
2018-05-17T07:51:56.979Z,12.64
2018-05-17T07:52:56.957Z,12.70
2018-05-17T07:53:56.926Z,12.68
2018-05-17T07:54:56.908Z,12.79
2018-05-17T07:55:56.885Z,12.80
2018-05-17T07:56:56.852Z,12.93
2018-05-17T07:57:56.826Z,13.00
2018-05-17T07:58:56.799Z,13.03
2018-05-17T07:59:56.777Z,12.97
2018-05-17T08:00:56.824Z,13.13
2018-05-17T08:01:56.720Z,13.13
2018-05-17T08:02:56.691Z,13.09
2018-05-17T08:03:56.674Z,13.12
2018-05-17T08:04:56.646Z,13.16
2018-05-17T08:05:56.634Z,13.12
2018-05-17T08:06:56.591Z,13.18
2018-05-17T08:07:56.573Z,13.11
2018-05-17T08:08:56.542Z,13.41
2018-05-17T08:09:56.514Z,13.18
2018-05-17T08:10:56.490Z,13.04
2018-05-17T08:11:56.466Z,13.01
2018-05-17T08:12:56.439Z,12.87
2018-05-17T08:13:56.416Z,12.80
2018-05-17T08:14:56.383Z,12.79
2018-05-17T08:15:56.364Z,12.80
2018-05-17T08:16:56.345Z,12.78
2018-05-17T08:17:56.371Z,12.75
2018-05-17T08:18:56.286Z,12.70
2018-05-17T08:19:56.252Z,12.78
2018-05-17T08:20:56.235Z,12.86
2018-05-17T08:21:56.208Z,12.86
2018-05-17T08:22:56.174Z,12.90
2018-05-17T08:23:56.152Z,12.85
2018-05-17T08:24:56.130Z,12.90
2018-05-17T08:25:56.097Z,12.94
2018-05-17T08:26:56.082Z,12.97
2018-05-17T08:27:56.051Z,13.04
2018-05-17T08:28:56.032Z,12.95
2018-05-17T08:29:55.998Z,13.00
2018-05-17T08:30:55.969Z,13.00
2018-05-17T08:31:55.945Z,13.11
2018-05-17T08:32:55.922Z,13.22
2018-05-17T08:33:55.892Z,13.19
2018-05-17T08:34:55.867Z,13.23
2018-05-17T08:35:55.845Z,13.25
2018-05-17T08:36:55.811Z,13.37
2018-05-17T08:37:55.787Z,13.37
2018-05-17T08:38:55.761Z,13.44
2018-05-17T08:39:55.735Z,13.52
2018-05-17T08:40:55.720Z,13.41
2018-05-17T08:41:55.686Z,13.46
2018-05-17T08:42:55.661Z,13.49
2018-05-17T08:43:55.633Z,13.57
2018-05-17T08:44:55.606Z,13.70
2018-05-17T08:45:55.581Z,13.79
2018-05-17T08:46:55.558Z,14.04
2018-05-17T08:47:55.535Z,14.05
2018-05-17T08:48:55.522Z,13.96
2018-05-17T08:49:55.480Z,14.07
2018-05-17T08:50:55.448Z,14.04
2018-05-17T08:51:55.430Z,14.03
2018-05-17T08:52:55.399Z,13.97
2018-05-17T08:53:55.380Z,13.96
2018-05-17T08:54:55.352Z,13.83
2018-05-17T08:55:55.328Z,13.93
2018-05-17T08:56:55.298Z,13.87
2018-05-17T08:57:55.273Z,13.85
2018-05-17T08:58:55.248Z,13.87
2018-05-17T08:59:55.224Z,13.79
2018-05-17T09:00:55.200Z,13.86
2018-05-17T09:01:55.170Z,13.99
2018-05-17T09:02:55.141Z,13.95
2018-05-17T09:03:55.115Z,13.96
2018-05-17T09:04:55.099Z,14.00
2018-05-17T09:05:55.066Z,13.97
2018-05-17T09:06:55.042Z,14.04
2018-05-17T09:07:55.022Z,14.04
2018-05-17T09:08:54.986Z,13.99
2018-05-17T09:09:54.961Z,13.90
2018-05-17T09:10:54.942Z,13.79
2018-05-17T09:11:54.914Z,13.81
2018-05-17T09:12:54.888Z,13.77
2018-05-17T09:13:54.887Z,13.75
2018-05-17T09:14:54.832Z,13.77
2018-05-17T09:15:54.807Z,13.72
2018-05-17T09:16:54.785Z,13.74
2018-05-17T09:17:54.766Z,13.85
2018-05-17T09:18:54.733Z,13.86
2018-05-17T09:19:54.710Z,13.87
2018-05-17T09:20:54.677Z,13.93
2018-05-17T09:21:54.658Z,13.90
2018-05-17T09:22:54.626Z,13.93
2018-05-17T09:23:54.600Z,13.90
2018-05-17T09:24:54.584Z,13.79
2018-05-17T09:25:54.552Z,13.79
2018-05-17T09:26:54.527Z,13.72
2018-05-17T09:27:54.503Z,13.71
2018-05-17T09:28:54.476Z,13.70
2018-05-17T09:29:54.455Z,13.68
2018-05-17T09:30:54.420Z,13.60
2018-05-17T09:31:54.404Z,13.60
2018-05-17T09:32:54.370Z,13.54
2018-05-17T09:33:54.348Z,13.63
2018-05-17T09:34:54.320Z,13.70
2018-05-17T09:35:54.297Z,13.78
2018-05-17T09:36:54.267Z,13.85
2018-05-17T09:37:54.246Z,13.77
2018-05-17T09:38:54.219Z,13.77
2018-05-17T09:39:54.190Z,13.78
2018-05-17T09:40:54.179Z,13.75
2018-05-17T09:41:54.136Z,13.75
2018-05-17T09:42:54.117Z,13.77
2018-05-17T09:43:54.089Z,13.74
2018-05-17T09:44:54.069Z,13.71
2018-05-17T09:45:54.041Z,13.68
2018-05-17T09:46:54.016Z,13.71
2018-05-17T09:47:53.983Z,13.81
2018-05-17T09:48:53.962Z,13.78
2018-05-17T09:49:53.939Z,13.86
2018-05-17T09:50:53.905Z,13.86
2018-05-17T09:51:53.879Z,13.83
2018-05-17T09:52:53.857Z,13.93
2018-05-17T09:53:53.829Z,13.89
2018-05-17T09:54:53.831Z,13.92
2018-05-17T09:55:53.781Z,14.00
2018-05-17T09:56:53.751Z,14.00
2018-05-17T09:57:53.732Z,14.00
2018-05-17T09:58:53.703Z,14.04
2018-05-17T09:59:53.674Z,14.05
2018-05-17T10:00:53.645Z,13.93
2018-05-17T10:01:53.626Z,13.93
2018-05-17T10:02:53.601Z,13.93
2018-05-17T10:03:53.574Z,13.92
2018-05-17T10:04:53.546Z,13.99
2018-05-17T10:05:53.517Z,14.03
2018-05-17T10:06:53.500Z,14.05
2018-05-17T10:07:53.471Z,13.95
2018-05-17T10:08:53.454Z,13.99
2018-05-17T10:09:53.422Z,13.86
2018-05-17T10:10:53.388Z,13.93
2018-05-17T10:11:53.366Z,13.90
2018-05-17T10:12:53.348Z,13.90
2018-05-17T10:13:53.310Z,13.95
2018-05-17T10:14:53.292Z,13.95
2018-05-17T10:15:53.265Z,14.04
2018-05-17T10:16:53.237Z,14.00
2018-05-17T10:17:53.220Z,14.08
2018-05-17T10:18:53.181Z,14.18
2018-05-17T10:19:53.159Z,14.20
2018-05-17T10:20:53.213Z,14.20
2018-05-17T10:21:53.195Z,14.12
2018-05-17T10:22:53.083Z,14.11
2018-05-17T10:23:53.062Z,14.12
2018-05-17T10:24:53.039Z,14.15
2018-05-17T10:25:53.007Z,14.07
2018-05-17T10:26:52.978Z,14.10
2018-05-17T10:27:52.952Z,14.15
2018-05-17T10:28:52.933Z,14.17
2018-05-17T10:29:52.902Z,14.12
2018-05-17T10:30:52.877Z,14.25
2018-05-17T10:31:52.884Z,14.30
2018-05-17T10:32:52.828Z,14.29
2018-05-17T10:33:52.800Z,14.33
2018-05-17T10:34:52.772Z,14.32
2018-05-17T10:35:52.749Z,14.30
2018-05-17T10:36:52.722Z,14.37
2018-05-17T10:37:52.702Z,14.36
2018-05-17T10:38:52.679Z,14.37
2018-05-17T10:39:52.646Z,14.41
2018-05-17T10:40:52.626Z,14.48
2018-05-17T10:41:52.598Z,14.51
2018-05-17T10:42:52.564Z,14.66
2018-05-17T10:43:52.546Z,14.72
2018-05-17T10:44:52.552Z,14.77
2018-05-17T10:45:52.493Z,14.72
2018-05-17T10:46:52.469Z,14.81
2018-05-17T10:47:52.436Z,14.77
2018-05-17T10:48:52.478Z,14.79
2018-05-17T10:49:52.393Z,14.78
2018-05-17T10:50:52.357Z,14.68
2018-05-17T10:51:52.342Z,14.63
2018-05-17T10:52:52.311Z,14.66
2018-05-17T10:53:52.291Z,14.88
2018-05-17T10:54:52.255Z,14.77
2018-05-17T10:55:52.239Z,14.81
2018-05-17T10:56:52.207Z,14.97
2018-05-17T10:57:52.181Z,15.02
2018-05-17T10:58:52.181Z,15.04
2018-05-17T10:59:52.130Z,15.28
2018-05-17T11:00:52.111Z,15.19
2018-05-17T11:01:52.079Z,15.17
2018-05-17T11:02:52.051Z,15.24
2018-05-17T11:03:52.029Z,15.18
2018-05-17T11:04:52.013Z,15.18
2018-05-17T11:05:51.981Z,15.29
2018-05-17T11:06:51.951Z,15.22
2018-05-17T11:07:51.929Z,15.33
2018-05-17T11:08:51.901Z,15.35
2018-05-17T11:09:51.873Z,15.27
2018-05-17T11:10:51.860Z,15.27
2018-05-17T11:11:51.904Z,15.33
2018-05-17T11:12:51.800Z,15.28
2018-05-17T11:13:51.787Z,15.27
2018-05-17T11:14:51.748Z,15.27
2018-05-17T11:15:51.722Z,15.27
2018-05-17T11:16:51.701Z,15.27
2018-05-17T11:17:51.669Z,15.35
2018-05-17T11:18:51.647Z,15.43
2018-05-17T11:19:51.619Z,15.43
2018-05-17T11:20:51.604Z,15.42
2018-05-17T11:21:51.571Z,15.43
2018-05-17T11:22:51.549Z,15.46
2018-05-17T11:23:51.524Z,15.51
2018-05-17T11:24:51.493Z,15.40
2018-05-17T11:25:51.522Z,15.29
2018-05-17T11:26:51.445Z,15.42
2018-05-17T11:27:51.418Z,15.39
2018-05-17T11:28:51.396Z,15.42
2018-05-17T11:29:51.370Z,15.54
2018-05-17T11:30:51.342Z,15.61
2018-05-17T11:31:51.319Z,15.51
2018-05-17T11:32:51.291Z,15.62
2018-05-17T11:33:51.295Z,15.73
2018-05-17T11:34:51.244Z,15.79
2018-05-17T11:35:51.216Z,15.72
2018-05-17T11:36:51.191Z,15.79
2018-05-17T11:37:51.169Z,15.83
2018-05-17T11:38:51.138Z,15.88
2018-05-17T11:39:51.111Z,15.94
2018-05-17T11:40:51.115Z,15.94
2018-05-17T11:41:51.067Z,15.97
2018-05-17T11:42:51.039Z,16.01
2018-05-17T11:43:51.016Z,16.04
2018-05-17T11:44:50.992Z,16.17
2018-05-17T11:45:50.961Z,16.13
2018-05-17T11:46:50.939Z,16.21
2018-05-17T11:47:50.922Z,16.16
2018-05-17T11:48:50.891Z,16.15
2018-05-17T11:49:50.865Z,16.16
2018-05-17T11:50:50.855Z,16.21
2018-05-17T11:51:50.812Z,16.28
2018-05-17T11:52:50.784Z,16.28
2018-05-17T11:53:50.775Z,16.17
2018-05-17T11:54:50.738Z,16.21
2018-05-17T11:55:50.716Z,16.23
2018-05-17T11:56:50.765Z,16.29
2018-05-17T11:57:50.666Z,16.24
2018-05-17T11:58:50.634Z,16.29
2018-05-17T11:59:50.617Z,16.35
2018-05-17T12:00:50.602Z,16.39
2018-05-17T12:01:50.557Z,16.38
2018-05-17T12:02:50.540Z,16.43
2018-05-17T12:03:50.505Z,16.53
2018-05-17T12:04:50.489Z,16.43
2018-05-17T12:05:50.461Z,16.56
2018-05-17T12:06:50.434Z,16.58
2018-05-17T12:07:50.414Z,16.60
2018-05-17T12:08:50.384Z,16.47
2018-05-17T12:09:50.358Z,16.42
2018-05-17T12:10:50.379Z,16.39
2018-05-17T12:11:50.306Z,16.47
2018-05-17T12:12:50.288Z,16.49
2018-05-17T12:13:50.290Z,16.57
2018-05-17T12:14:50.237Z,16.65
2018-05-17T12:15:50.204Z,16.58
2018-05-17T12:16:50.187Z,16.54
2018-05-17T12:17:50.160Z,16.58
2018-05-17T12:18:50.135Z,16.65
2018-05-17T12:19:50.114Z,16.61
2018-05-17T12:20:50.080Z,16.66
2018-05-17T12:21:50.060Z,16.75
2018-05-17T12:22:50.034Z,16.68
2018-05-17T12:23:50.005Z,16.72
2018-05-17T12:24:49.991Z,16.69
2018-05-17T12:25:49.962Z,16.68
2018-05-17T12:26:49.959Z,16.79
2018-05-17T12:27:49.904Z,16.90
2018-05-17T12:28:49.878Z,16.86
2018-05-17T12:29:49.868Z,16.90
2018-05-17T12:30:49.828Z,17.05
2018-05-17T12:31:49.923Z,17.01
2018-05-17T12:32:49.788Z,17.15
2018-05-17T12:33:49.753Z,17.09
2018-05-17T12:34:49.767Z,17.20
2018-05-17T12:35:49.748Z,17.23
2018-05-17T12:36:49.712Z,17.22
2018-05-17T12:37:49.666Z,17.24
2018-05-17T12:38:49.634Z,17.22
2018-05-17T12:39:49.605Z,17.26
2018-05-17T12:40:49.587Z,17.22
2018-05-17T12:41:49.561Z,17.14
2018-05-17T12:42:49.544Z,17.08
2018-05-17T12:43:49.504Z,17.09
2018-05-17T12:44:49.483Z,17.14
2018-05-17T12:45:49.455Z,17.20
2018-05-17T12:46:49.437Z,17.29
2018-05-17T12:47:49.410Z,17.44
2018-05-17T12:48:49.390Z,17.48
2018-05-17T12:49:49.368Z,17.59
2018-05-17T12:50:49.336Z,17.67
2018-05-17T12:51:49.315Z,17.72